createdAt,value
2019-02-23T00:01:58.131Z,60.20
2019-02-23T00:07:02.087Z,60.30
2019-02-23T00:12:05.944Z,60.10
2019-02-23T00:17:09.975Z,60.40
2019-02-23T00:22:13.916Z,60.40
2019-02-23T00:27:17.852Z,60.00
2019-02-23T00:32:21.741Z,60.10
2019-02-23T00:37:25.759Z,60.30
2019-02-23T00:42:29.707Z,60.30
2019-02-23T00:47:33.600Z,60.10
2019-02-23T00:52:37.555Z,60.10
2019-02-23T00:57:41.434Z,60.30
2019-02-23T01:02:45.331Z,60.60
2019-02-23T01:07:49.267Z,59.90
2019-02-23T01:12:53.202Z,60.10
2019-02-23T01:17:57.151Z,59.60
2019-02-23T01:23:01.039Z,59.70
2019-02-23T01:28:05.039Z,59.60
2019-02-23T01:33:08.946Z,59.80
2019-02-23T01:38:12.806Z,59.70
2019-02-23T01:43:16.756Z,60.20
2019-02-23T01:48:20.775Z,59.10
2019-02-23T01:53:24.741Z,59.70
2019-02-23T01:58:28.687Z,59.20
2019-02-23T02:03:32.659Z,59.00
2019-02-23T02:08:36.749Z,59.20
2019-02-23T02:13:40.799Z,59.30
2019-02-23T02:18:44.775Z,59.30
2019-02-23T02:23:48.732Z,59.50
2019-02-23T02:28:52.619Z,59.20
2019-02-23T02:34:13.958Z,59.20
2019-02-23T02:39:17.908Z,58.70
2019-02-23T02:44:21.785Z,58.90
2019-02-23T02:49:25.747Z,58.60
2019-02-23T02:54:30.482Z,58.60
2019-02-23T02:59:34.444Z,58.90
2019-02-23T03:04:38.480Z,59.30
2019-02-23T03:09:42.479Z,58.40
2019-02-23T03:14:46.378Z,58.90
2019-02-23T03:19:50.328Z,59.20
2019-02-23T03:24:54.203Z,58.50
2019-02-23T03:29:58.270Z,58.20
2019-02-23T03:35:02.142Z,58.40
2019-02-23T03:40:07.520Z,58.30
2019-02-23T03:45:11.963Z,58.20
2019-02-23T03:50:15.916Z,57.40
2019-02-23T03:55:19.804Z,58.20
2019-02-23T04:00:23.707Z,58.50
2019-02-23T04:05:27.741Z,58.90
2019-02-23T04:10:31.623Z,58.50
2019-02-23T04:15:35.828Z,58.20
2019-02-23T04:20:39.870Z,58.70
2019-02-23T04:25:44.179Z,59.00
2019-02-23T04:30:48.065Z,59.00
2019-02-23T04:35:52.109Z,59.10
2019-02-23T04:40:56.020Z,58.60
2019-02-23T04:45:59.966Z,58.60
2019-02-23T04:51:13.799Z,58.80
2019-02-23T04:56:09.480Z,58.70
2019-02-23T05:01:13.444Z,58.70
2019-02-23T05:06:17.335Z,58.90
2019-02-23T05:11:21.368Z,59.00
2019-02-23T05:16:25.281Z,58.80
2019-02-23T05:21:29.325Z,58.80
2019-02-23T05:26:33.300Z,58.90
2019-02-23T05:31:37.327Z,58.50
2019-02-23T05:36:41.248Z,58.50
2019-02-23T05:41:45.228Z,58.40
2019-02-23T05:46:49.116Z,58.30
2019-02-23T05:51:53.091Z,58.30
2019-02-23T05:56:57.001Z,58.10
2019-02-23T06:02:01.012Z,57.80
2019-02-23T06:07:05.004Z,58.30
2019-02-23T06:12:08.999Z,58.60
2019-02-23T06:17:13.503Z,57.60
2019-02-23T06:22:17.395Z,59.20
2019-02-23T06:27:21.360Z,59.00
2019-02-23T06:32:25.257Z,58.80
2019-02-23T06:37:29.176Z,58.40
2019-02-23T06:42:33.103Z,58.30
2019-02-23T06:47:37.184Z,58.80
2019-02-23T06:52:41.117Z,57.70
2019-02-23T06:57:45.133Z,59.10
2019-02-23T07:02:49.126Z,59.20
2019-02-23T07:07:53.175Z,58.80
2019-02-23T07:12:57.263Z,58.80
2019-02-23T07:18:01.919Z,58.00
2019-02-23T07:23:05.911Z,59.30
2019-02-23T07:28:10.947Z,59.10
2019-02-23T07:33:15.004Z,59.50
2019-02-23T07:38:18.913Z,59.50
2019-02-23T07:43:22.975Z,58.80
2019-02-23T07:48:26.939Z,58.90
2019-02-23T07:53:31.023Z,58.40
2019-02-23T07:58:35.003Z,58.60
2019-02-23T08:03:38.915Z,59.10
2019-02-23T08:08:42.831Z,59.00
2019-02-23T08:13:47.205Z,59.00
2019-02-23T08:18:51.202Z,59.30
2019-02-23T08:23:55.103Z,58.90
2019-02-23T08:28:59.163Z,59.00
2019-02-23T08:34:03.162Z,58.90
2019-02-23T08:39:07.227Z,58.70
2019-02-23T08:44:11.212Z,58.60
2019-02-23T08:49:15.175Z,58.90
2019-02-23T08:54:19.242Z,58.60
2019-02-23T08:59:23.143Z,58.80
2019-02-23T09:04:27.135Z,59.00
2019-02-23T09:09:32.095Z,59.00
2019-02-23T09:14:36.037Z,60.80
2019-02-23T09:19:40.015Z,58.50
2019-02-23T09:24:43.940Z,68.20
2019-02-23T09:29:47.855Z,60.40
2019-02-23T09:34:51.796Z,57.00
2019-02-23T09:39:55.854Z,54.70
2019-02-23T09:44:59.887Z,53.70
2019-02-23T09:50:03.975Z,56.10
2019-02-23T09:55:08.049Z,55.90
2019-02-23T10:00:12.130Z,57.40
2019-02-23T10:05:16.207Z,57.10
2019-02-23T10:10:20.300Z,57.40
2019-02-23T10:15:24.312Z,57.30
2019-02-23T10:20:28.222Z,57.20
2019-02-23T10:25:32.200Z,57.30
2019-02-23T10:30:36.199Z,57.50
2019-02-23T10:35:40.180Z,57.40
2019-02-23T10:40:44.193Z,57.10
2019-02-23T10:45:48.192Z,56.40
2019-02-23T10:50:52.159Z,56.00
2019-02-23T10:55:56.187Z,56.60
2019-02-23T11:01:00.221Z,56.50
2019-02-23T11:06:04.339Z,56.80
2019-02-23T11:11:08.391Z,56.70
2019-02-23T11:16:12.547Z,57.60
2019-02-23T11:21:16.514Z,56.40
2019-02-23T11:26:20.558Z,55.70
2019-02-23T11:31:24.519Z,54.90
2019-02-23T11:36:28.491Z,48.80
2019-02-23T11:41:32.442Z,47.10
2019-02-23T11:46:37.255Z,49.80
2019-02-23T11:51:41.236Z,50.00
2019-02-23T11:56:45.215Z,48.90
2019-02-23T12:01:49.312Z,50.30
2019-02-23T12:06:54.231Z,50.30
2019-02-23T12:11:58.277Z,51.00
2019-02-23T12:17:02.168Z,50.80
2019-02-23T12:22:12.250Z,52.00
2019-02-23T12:27:11.907Z,51.80
2019-02-23T12:32:15.961Z,52.40
2019-02-23T12:37:19.943Z,50.70
2019-02-23T12:42:23.921Z,49.00
2019-02-23T12:47:27.968Z,49.40
2019-02-23T12:52:32.011Z,49.50
2019-02-23T12:57:35.992Z,48.70
2019-02-23T13:02:40.240Z,49.20
2019-02-23T13:07:44.607Z,48.90
2019-02-23T13:13:44.979Z,49.20
2019-02-23T13:19:35.552Z,48.60
2019-02-23T13:25:15.263Z,48.10
2019-02-23T13:30:59.528Z,47.60
2019-02-23T13:36:39.239Z,47.70
2019-02-23T13:42:20.776Z,48.30
2019-02-23T13:48:17.946Z,54.40
2019-02-23T13:54:11.944Z,48.90
2019-02-23T13:59:54.191Z,50.10
2019-02-23T14:05:24.309Z,49.70
2019-02-23T14:10:58.979Z,47.90
2019-02-23T14:16:53.344Z,47.30
2019-02-23T14:22:29.824Z,46.60
2019-02-23T14:28:18.571Z,47.40
2019-02-23T14:33:51.017Z,46.30
2019-02-23T14:39:41.427Z,46.10
2019-02-23T14:45:10.885Z,46.70
2019-02-23T14:51:08.024Z,46.30
2019-02-23T14:56:37.907Z,46.40
2019-02-23T15:02:16.786Z,46.40
2019-02-23T15:08:05.173Z,46.30
2019-02-23T15:13:29.260Z,45.00
2019-02-23T15:19:11.404Z,46.30
2019-02-23T15:25:13.504Z,46.40
2019-02-23T15:30:48.008Z,49.20
2019-02-23T15:36:29.583Z,46.90
2019-02-23T15:42:03.435Z,46.20
2019-02-23T15:47:50.797Z,46.30
2019-02-23T15:52:54.861Z,45.20
2019-02-23T15:57:58.860Z,45.80
2019-02-23T16:03:02.759Z,47.20
2019-02-23T16:08:06.844Z,46.70
2019-02-23T16:13:10.740Z,46.50
2019-02-23T16:18:14.772Z,47.80
2019-02-23T16:23:18.662Z,46.40
2019-02-23T16:28:22.638Z,52.70
2019-02-23T16:33:26.887Z,48.50
2019-02-23T16:38:30.858Z,48.30
2019-02-23T16:43:34.863Z,48.70
2019-02-23T16:48:38.771Z,49.10
2019-02-23T16:53:42.743Z,49.80
2019-02-23T16:58:46.925Z,51.60
2019-02-23T17:03:51.203Z,51.80
2019-02-23T17:08:55.380Z,51.40
2019-02-23T17:13:59.392Z,51.40
2019-02-23T17:19:03.507Z,51.40
2019-02-23T17:24:07.711Z,53.00
2019-02-23T17:29:11.899Z,50.30
2019-02-23T17:34:16.239Z,51.60
2019-02-23T17:39:20.180Z,51.40
2019-02-23T17:44:24.252Z,51.50
2019-02-23T17:49:28.264Z,51.70
2019-02-23T17:54:32.291Z,51.90
2019-02-23T17:59:36.459Z,52.30
2019-02-23T18:04:40.659Z,52.80
2019-02-23T18:09:44.816Z,53.10
2019-02-23T18:14:49.022Z,53.30
2019-02-23T18:19:53.178Z,53.40
2019-02-23T18:24:57.249Z,53.60
2019-02-23T18:30:10.791Z,53.70
2019-02-23T18:35:07.435Z,53.50
2019-02-23T18:40:11.483Z,53.80
2019-02-23T18:45:15.639Z,54.00
2019-02-23T18:50:21.722Z,54.00
2019-02-23T18:55:25.614Z,54.00
2019-02-23T19:00:29.923Z,54.50
2019-02-23T19:05:34.087Z,55.10
2019-02-23T19:10:38.135Z,55.00
2019-02-23T19:15:42.180Z,54.00
2019-02-23T19:20:46.073Z,54.00
2019-02-23T19:25:50.048Z,54.00
2019-02-23T19:30:54.020Z,54.00
2019-02-23T19:35:58.051Z,51.70
2019-02-23T19:41:02.096Z,53.80
2019-02-23T19:46:07.005Z,53.70
2019-02-23T19:51:11.039Z,54.20
2019-02-23T19:56:15.147Z,53.70
2019-02-23T20:01:19.191Z,53.90
2019-02-23T20:06:23.087Z,54.10
2019-02-23T20:11:26.979Z,54.40
2019-02-23T20:16:30.891Z,54.30
2019-02-23T20:21:34.927Z,54.20
2019-02-23T20:26:38.893Z,54.20
2019-02-23T20:31:42.931Z,54.00
2019-02-23T20:36:46.863Z,54.20
2019-02-23T20:41:51.000Z,54.20
2019-02-23T20:46:54.888Z,54.10
2019-02-23T20:51:58.997Z,54.40
2019-02-23T20:57:05.293Z,54.20
2019-02-23T21:02:08.575Z,54.20
2019-02-23T21:07:12.495Z,54.40
2019-02-23T21:12:16.471Z,54.20
2019-02-23T21:17:21.059Z,54.20
2019-02-23T21:22:25.019Z,54.20
2019-02-23T21:27:28.908Z,53.50
2019-02-23T21:32:32.791Z,54.40
2019-02-23T21:37:36.951Z,54.20
2019-02-23T21:42:40.855Z,54.60
2019-02-23T21:47:45.045Z,54.30
2019-02-23T21:52:49.003Z,54.40
2019-02-23T21:57:52.960Z,54.10
2019-02-23T22:02:56.957Z,54.40
2019-02-23T22:08:00.916Z,54.40
2019-02-23T22:13:05.049Z,54.60
2019-02-23T22:18:08.935Z,54.50
2019-02-23T22:23:12.852Z,54.50
2019-02-23T22:28:16.809Z,54.60
2019-02-23T22:33:20.707Z,54.60
2019-02-23T22:38:24.659Z,54.60
2019-02-23T22:43:28.915Z,55.10
2019-02-23T22:48:32.811Z,54.50
2019-02-23T22:53:36.695Z,54.50
2019-02-23T22:58:40.582Z,54.50
2019-02-23T23:03:44.473Z,54.10
2019-02-23T23:08:48.610Z,55.20
2019-02-23T23:13:52.644Z,54.40
2019-02-23T23:18:56.543Z,54.30
2019-02-23T23:24:00.510Z,54.40
2019-02-23T23:29:04.467Z,53.50
2019-02-23T23:34:08.508Z,54.30
2019-02-23T23:39:12.542Z,54.40
2019-02-23T23:44:16.424Z,54.60
2019-02-23T23:49:20.395Z,54.40
2019-02-23T23:54:24.343Z,55.40
2019-02-23T23:59:28.299Z,54.30
